マカオ の空港の天気 - METARとTAF

マカオ国際空港 ( VMMC / MFM ) - マカオ タイパ島
飛行場実況気象(Metar)
観測時間02/20 23:00 CST (02/20 15:00 UTC)
風向・風速南東 2m/s
視程6000m
天気現象
少しの雲 雲底高度 910m
気温19℃
湿度94%
気圧1015hPa
METARVMMC 201500Z 13004KT 6000 FEW030 19/18 Q1015 NOSIG
過去の天気等 Google飛行場航空写真 Wunderground天気予報

過去48時間のMETAR

飛行場予報(TAF)
発表時間: 2/20 22:02 CST (2/20 14:02 UTC)
予報対象時間: 20日22時 CST ~ 22日2時 CST
風向・風速東南東 3m/s
視程6,000m
少しの雲 雲底高度 120m
全天の4割程度の雲 雲底高度 610m
20日22時 CST ~ 21日4時 CST に一時的に
視程2,500m
天気現象もや
21日4時 CST ~ 21日10時 CST に一時的に
視程1,400m
天気現象もや
21日8時 CST ~ 21日10時 CST に徐々に
風向・風速東 8m/s
21日10時 CST ~ 21日18時 CST に一時的に
風向・風速東 9m/s 瞬間風速 14m/s
21日22時 CST ~ 22日2時 CST に一時的に
視程2,800m
天気現象雨 もや
TAF AMD VMMC 201402Z 2014/2118 12005KT 6000 FEW004 SCT020
TEMPO 2014/2020 2500 BR
TEMPO 2020/2102 1400 BR
BECMG 2100/2102 10015KT
TEMPO 2102/2110 09018G28KT
TEMPO 2114/2118 2800 RA BR